createdAt,value
2022-11-18T00:04:36.722Z,13.38
2022-11-18T00:09:39.513Z,13.95
2022-11-18T00:14:43.632Z,13.68
2022-11-18T00:19:46.534Z,13.38
2022-11-18T00:24:49.370Z,14.15
2022-11-18T00:29:53.596Z,15.60
2022-11-18T00:34:56.337Z,15.55
2022-11-18T00:39:59.149Z,16.02
2022-11-18T00:45:04.661Z,15.77
2022-11-18T00:50:08.261Z,16.35
2022-11-18T00:55:11.071Z,17.92
2022-11-18T01:00:15.721Z,18.40
2022-11-18T01:05:18.543Z,18.52
2022-11-18T01:10:21.341Z,18.13
2022-11-18T01:15:25.500Z,17.90
2022-11-18T01:20:28.296Z,16.45
2022-11-18T01:25:31.169Z,17.63
2022-11-18T01:30:36.890Z,17.92
2022-11-18T01:35:41.701Z,16.88
2022-11-18T01:40:44.523Z,16.88
2022-11-18T01:45:50.218Z,16.95
2022-11-18T01:50:56.688Z,15.90
2022-11-18T01:56:04.372Z,14.98
2022-11-18T02:01:08.927Z,16.17
2022-11-18T02:06:12.453Z,14.95
2022-11-18T02:11:31.024Z,14.88
2022-11-18T02:16:47.142Z,14.73
2022-11-18T02:22:00.582Z,15.38
2022-11-18T02:27:42.984Z,14.15
2022-11-18T02:32:55.196Z,15.25
2022-11-18T02:38:01.453Z,15.65
2022-11-18T02:43:08.772Z,16.98
2022-11-18T02:48:15.436Z,16.58
2022-11-18T02:53:21.948Z,16.35
2022-11-18T02:58:26.974Z,15.57
2022-11-18T03:03:33.225Z,17.20
2022-11-18T03:08:40.448Z,17.52
2022-11-18T03:13:54.185Z,15.98
2022-11-18T03:19:06.392Z,16.58
2022-11-18T03:24:16.049Z,15.48
2022-11-18T03:29:22.765Z,17.23
2022-11-18T03:34:31.476Z,15.32
2022-11-18T03:39:38.574Z,15.93
2022-11-18T03:44:49.678Z,15.35
2022-11-18T03:50:02.065Z,16.77
2022-11-18T03:55:12.197Z,16.35
2022-11-18T04:00:17.233Z,15.93
2022-11-18T04:05:21.768Z,16.88
2022-11-18T04:10:30.810Z,15.55
2022-11-18T04:15:33.910Z,16.85
2022-11-18T04:20:38.458Z,15.80
2022-11-18T04:25:41.197Z,17.60
2022-11-18T04:30:45.022Z,17.52
2022-11-18T04:35:49.278Z,18.17
2022-11-18T04:40:52.029Z,17.20
2022-11-18T04:45:54.793Z,17.73
2022-11-18T04:50:59.353Z,17.80
2022-11-18T04:56:06.453Z,15.77
2022-11-18T05:01:09.613Z,17.13
2022-11-18T05:06:13.910Z,17.80
2022-11-18T05:11:34.453Z,17.13
2022-11-18T05:16:37.268Z,18.38
2022-11-18T05:21:41.445Z,17.05
2022-11-18T05:26:44.410Z,17.40
2022-11-18T05:31:47.589Z,18.98
2022-11-18T05:36:51.884Z,19.52
2022-11-18T05:42:12.353Z,17.48
2022-11-18T05:47:15.349Z,17.42
2022-11-18T05:52:19.498Z,16.30
2022-11-18T05:57:22.327Z,16.02
2022-11-18T06:02:25.505Z,15.05
2022-11-18T06:07:36.899Z,15.43
2022-11-18T06:12:44.812Z,16.13
2022-11-18T06:17:53.206Z,16.70
2022-11-18T06:23:00.936Z,15.55
2022-11-18T06:28:04.035Z,17.48
2022-11-18T06:33:06.832Z,16.10
2022-11-18T06:38:10.993Z,16.83
2022-11-18T06:43:31.725Z,17.98
2022-11-18T06:48:34.526Z,17.50
2022-11-18T06:53:38.893Z,16.90
2022-11-18T06:58:42.203Z,15.73
2022-11-18T07:03:46.633Z,16.58
2022-11-18T07:08:51.718Z,16.02
2022-11-18T07:13:54.669Z,10.82
2022-11-18T07:18:57.612Z,11.35
2022-11-18T07:24:01.745Z,10.10
2022-11-18T07:29:04.659Z,9.75
2022-11-18T07:34:07.913Z,8.55
2022-11-18T07:39:12.005Z,12.20
2022-11-18T07:44:15.144Z,12.57
2022-11-18T07:49:18.210Z,11.45
2022-11-18T07:54:22.589Z,11.93
2022-11-18T07:59:25.416Z,11.68
2022-11-18T08:04:28.242Z,12.02
2022-11-18T08:09:32.393Z,12.55
2022-11-18T08:14:35.228Z,14.00
2022-11-18T08:19:38.028Z,13.13
2022-11-18T08:24:42.148Z,12.15
2022-11-18T08:29:45.054Z,12.60
2022-11-18T08:34:47.876Z,11.63
2022-11-18T08:39:51.980Z,12.02
2022-11-18T08:44:54.737Z,12.45
2022-11-18T08:49:57.554Z,12.63
2022-11-18T08:55:02.355Z,12.82
2022-11-18T09:00:06.130Z,13.80
2022-11-18T09:05:09.492Z,15.15
2022-11-18T09:10:13.654Z,13.80
2022-11-18T09:15:17.472Z,14.30
2022-11-18T09:20:20.689Z,15.65
2022-11-18T09:25:24.812Z,15.35
2022-11-18T09:30:27.763Z,15.85
2022-11-18T09:35:30.548Z,17.02
2022-11-18T09:40:39.002Z,15.73
2022-11-18T09:45:50.004Z,16.17
2022-11-18T09:50:56.504Z,15.48
2022-11-18T09:56:15.543Z,15.95
2022-11-18T10:01:21.944Z,15.65
2022-11-18T10:06:27.801Z,16.88
2022-11-18T10:11:41.745Z,16.42
2022-11-18T10:16:58.089Z,16.63
2022-11-18T10:22:23.998Z,19.20
2022-11-18T10:27:36.749Z,17.17
2022-11-18T10:32:54.638Z,19.35
2022-11-18T10:38:08.674Z,17.95
2022-11-18T10:43:13.719Z,18.88
2022-11-18T10:48:20.240Z,18.90
2022-11-18T10:53:32.329Z,19.85
2022-11-18T10:58:42.271Z,18.42
2022-11-18T11:03:57.941Z,19.23
2022-11-18T11:09:04.641Z,20.45
2022-11-18T11:14:17.266Z,19.35
2022-11-18T11:19:24.900Z,19.27
2022-11-18T11:24:28.626Z,20.33
2022-11-18T11:29:57.154Z,21.00
2022-11-18T11:35:08.136Z,19.95
2022-11-18T11:40:25.862Z,20.65
2022-11-18T11:45:39.163Z,20.05
2022-11-18T11:51:05.048Z,18.98
2022-11-18T11:56:28.233Z,20.23
2022-11-18T12:01:39.512Z,19.75
2022-11-18T12:06:45.827Z,19.77
2022-11-18T12:11:53.743Z,18.88
2022-11-18T12:17:07.750Z,18.90
2022-11-18T12:22:10.505Z,19.88
2022-11-18T12:27:15.692Z,19.20
2022-11-18T12:32:36.162Z,20.35
2022-11-18T12:37:43.992Z,20.50
2022-11-18T12:43:05.960Z,19.77
2022-11-18T12:48:41.152Z,17.93
2022-11-18T12:53:46.276Z,17.67
2022-11-18T12:58:51.743Z,18.48
2022-11-18T13:04:08.789Z,17.98
2022-11-18T13:09:17.934Z,18.10
2022-11-18T13:14:42.740Z,20.00
2022-11-18T13:19:57.620Z,17.88
2022-11-18T13:25:00.396Z,18.05
2022-11-18T13:30:06.845Z,17.42
2022-11-18T13:35:16.484Z,18.17
2022-11-18T13:40:22.225Z,17.23
2022-11-18T13:45:29.398Z,17.38
2022-11-18T13:50:38.341Z,18.33
2022-11-18T13:55:47.381Z,18.27
2022-11-18T14:00:54.926Z,18.65
2022-11-18T14:05:59.604Z,17.13
2022-11-18T14:11:03.490Z,18.77
2022-11-18T14:16:31.843Z,16.90
2022-11-18T14:21:38.301Z,18.08
2022-11-18T14:26:41.151Z,17.10
2022-11-18T14:31:43.905Z,17.92
2022-11-18T14:36:48.975Z,20.05
2022-11-18T14:41:51.872Z,22.27
2022-11-18T14:46:58.932Z,17.55
2022-11-18T14:52:04.502Z,18.48
2022-11-18T14:57:07.307Z,16.15
2022-11-18T15:02:15.075Z,18.35
2022-11-18T15:07:23.796Z,14.23
2022-11-18T15:12:27.880Z,13.77
2022-11-18T15:17:30.806Z,21.90
2022-11-18T15:22:35.479Z,14.43
2022-11-18T15:27:38.779Z,11.63
2022-11-18T15:32:41.566Z,10.80
2022-11-18T15:37:45.729Z,8.63
2022-11-18T15:42:52.019Z,7.97
2022-11-18T15:47:55.300Z,7.75
2022-11-18T15:52:59.535Z,8.10
2022-11-18T15:58:02.331Z,8.68
2022-11-18T16:03:05.180Z,8.80
2022-11-18T16:08:09.328Z,10.40
2022-11-18T16:13:12.140Z,11.27
2022-11-18T16:18:16.021Z,13.18
2022-11-18T16:23:20.119Z,13.05
2022-11-18T16:28:22.893Z,13.05
2022-11-18T16:33:25.723Z,12.05
2022-11-18T16:38:29.807Z,15.02
2022-11-18T16:43:32.524Z,13.18
2022-11-18T16:48:35.275Z,14.75
2022-11-18T16:53:39.339Z,16.92
2022-11-18T16:58:42.072Z,14.18
2022-11-18T17:03:44.788Z,15.23
2022-11-18T17:08:49.246Z,16.23
2022-11-18T17:13:57.526Z,15.75
2022-11-18T17:19:03.768Z,16.48
2022-11-18T17:24:17.413Z,15.80
2022-11-18T17:29:21.499Z,19.27
2022-11-18T17:34:24.560Z,19.13
2022-11-18T17:39:31.927Z,19.10
2022-11-18T17:44:34.782Z,19.40
2022-11-18T17:49:37.542Z,21.52
2022-11-18T17:54:41.632Z,19.80
2022-11-18T17:59:44.468Z,18.77
2022-11-18T18:04:47.275Z,20.55
2022-11-18T18:09:51.416Z,21.60
2022-11-18T18:14:54.235Z,22.33
2022-11-18T18:19:57.033Z,20.88
2022-11-18T18:25:01.153Z,22.45
2022-11-18T18:30:04.052Z,23.88
2022-11-18T18:35:07.466Z,22.92
2022-11-18T18:40:13.662Z,21.88
2022-11-18T18:45:34.075Z,23.17
2022-11-18T18:50:36.800Z,23.35
2022-11-18T18:55:44.903Z,23.15
2022-11-18T19:00:48.121Z,25.02
2022-11-18T19:11:29.843Z,24.48
2022-11-18T19:16:33.296Z,25.70
2022-11-18T19:21:36.889Z,26.45
2022-11-18T19:26:41.014Z,24.08
2022-11-18T19:31:43.779Z,26.63
2022-11-18T19:36:46.590Z,24.75
2022-11-18T19:41:50.766Z,28.65
2022-11-18T19:46:53.487Z,28.42
2022-11-18T19:51:56.206Z,26.02
2022-11-18T19:57:00.945Z,27.45
2022-11-18T20:02:03.824Z,27.80
2022-11-18T20:07:06.793Z,29.52
2022-11-18T20:12:11.373Z,25.33
2022-11-18T20:17:14.296Z,27.48
2022-11-18T20:22:17.126Z,25.40
2022-11-18T20:27:21.630Z,23.38
2022-11-18T20:32:24.518Z,24.90
2022-11-18T20:37:28.206Z,26.10
2022-11-18T20:42:52.807Z,24.75
2022-11-18T20:47:56.002Z,26.48
2022-11-18T20:52:58.919Z,25.98
2022-11-18T20:58:03.287Z,28.42
2022-11-18T21:03:06.213Z,25.27
2022-11-18T21:08:10.288Z,24.10
2022-11-18T21:13:31.930Z,25.65
2022-11-18T21:18:35.606Z,24.60
2022-11-18T21:23:38.393Z,23.48
2022-11-18T21:28:42.585Z,25.10
2022-11-18T21:33:45.491Z,25.42
2022-11-18T21:38:48.710Z,25.33
2022-11-18T21:44:08.457Z,27.27
2022-11-18T21:49:11.345Z,25.08
2022-11-18T21:54:15.838Z,25.23
2022-11-18T21:59:22.366Z,25.38
2022-11-18T22:04:42.903Z,29.88
2022-11-18T22:09:45.805Z,29.50
2022-11-18T22:14:50.155Z,27.02
2022-11-18T22:19:53.119Z,29.70
2022-11-18T22:24:55.877Z,28.48
2022-11-18T22:30:00.059Z,27.63
2022-11-18T22:35:03.059Z,28.27
2022-11-18T22:40:07.246Z,27.02
2022-11-18T22:45:11.492Z,27.90
2022-11-18T22:50:14.283Z,26.42
2022-11-18T22:55:17.133Z,27.77
2022-11-18T23:00:21.567Z,26.83
2022-11-18T23:05:24.782Z,26.17
2022-11-18T23:10:27.562Z,26.73
2022-11-18T23:15:33.885Z,26.08
2022-11-18T23:20:37.114Z,27.30
2022-11-18T23:25:40.051Z,30.40
2022-11-18T23:30:44.169Z,28.40
2022-11-18T23:35:53.015Z,27.10
2022-11-18T23:40:56.905Z,27.33
2022-11-18T23:46:01.243Z,26.95
2022-11-18T23:51:05.961Z,28.92
2022-11-18T23:56:11.189Z,26.42
